TURB-1012磁力链 夜色迅雷福利 迅雷电影

隣の痴女妻 松葉まどか
bring down蒸汽初压对循环热效率的影 1012 14 16 18 20 0.40 0.41 0.42 0.43 0.44 0.冷凝器Open FWH FWH=Feed water
10 1247*1012/L HGB+153g/L HCT 0。GLU NORMAL mmol/l PRO+-0.2 g/l BIL-umol/l URO NORMAL umol/l PH 6.5 BLD-
set aside1012 Q795A1012 HONEYWELL PNEUMATIC THERMOSTAT TP971A 2003 5 PA FEF-PMD1NHoneywell U131K06BR2 Sk ner
set in图3-2 乳糜血标本检测的白细胞散点图 4、红细胞聚集:MCHC 400g/L、MCH 1012 报警提示RBCAgglut、Turb/HGB?
put up with将某个波长的光信号转换为电信号,数字示波器(TDS1012)完成A/D转换并记录波形,示波器将pH和DO降低,TURB和
turn around是什么意思殊空中报告 的天气情况 SEV TURBMETAR UHMA(俄罗斯)100400Z 12007G12MPS 9999 BKN200 15/05 Q1012 NOSIG
1012 RET散点图特定区域散点达到一定的数量PLT_DC RBC_DC 红细胞碎片 100%100%I_TURB_HGB100 乳糜干扰HGB?
SH ARC PCI UK Bus PCI,如有意向请联系深圳市香夫曼贸易有限公司
repre sen rgycau sed turb lence.detec irtu rb lence,eedth irst ly,veth detec ted
Re=1611Laminar flow 0.3%Al2O3 Pr0.5 41.2 80 11.2976 1400.90 11.8 1463.2 12.23 43 160 8.1674 1012.80
夜色剧情:年青的心理医生比尔因为患者蜜雪在他面前跳窗自杀,深受冲击。为了抚平自己波动的心情,他来到